Time;durP1;ratioP1;P1;durP2;ratioP2;P2;SDS_P1;SDS_P2;PMS_P1;PMS_P2;Temp;Humidity;BMP_temperature;BMP_pressure;BME280_temperature;BME280_humidity;BME280_pressure;Samples;Min_cycle;Max_cycle;Signal;HPM_P1;HPM_P2
2022/08/19 00:03:20;;;;;;;49.17;39.50;;;;;;;18.16;100.00;95939.81;10533938;28;20269;-75
2022/08/19 00:08:20;;;;;;;51.33;38.80;;;;;;;18.18;100.00;95943.88;10533575;28;20233;-75
2022/08/19 00:13:21;;;;;;;47.92;36.97;;;;;;;18.17;100.00;95960.00;10533793;28;20682;-75
2022/08/19 00:18:21;;;;;;;45.67;36.15;;;;;;;18.15;100.00;95967.38;10533238;28;20681;-74
2022/08/19 00:23:22;;;;;;;46.15;37.20;;;;;;;18.18;100.00;95969.59;10533106;28;20609;-75
2022/08/19 00:28:22;;;;;;;45.40;36.13;;;;;;;18.24;100.00;95957.25;10533508;28;20244;-75
2022/08/19 00:33:22;;;;;;;44.22;34.63;;;;;;;18.20;100.00;95961.41;10535431;28;20198;-75
2022/08/19 00:38:23;;;;;;;43.63;34.65;;;;;;;18.28;100.00;95947.84;10541160;28;20186;-75
2022/08/19 00:43:25;;;;;;;40.72;34.28;;;;;;;18.18;100.00;95953.69;10540913;28;20337;-75
2022/08/19 00:48:26;;;;;;;42.92;35.08;;;;;;;18.15;100.00;95954.94;10540350;28;20223;-75
2022/08/19 00:53:29;;;;;;;42.00;35.33;;;;;;;18.24;100.00;95959.91;10522642;28;20230;-75
2022/08/19 00:58:32;;;;;;;43.35;35.53;;;;;;;18.16;100.00;95964.50;10540116;28;20182;-75
2022/08/19 01:03:32;;;;;;;44.83;35.53;;;;;;;18.26;100.00;95961.31;10539444;28;20201;-75
2022/08/19 01:08:33;;;;;;;42.80;32.45;;;;;;;18.36;100.00;95976.69;10540088;28;20559;-76
2022/08/19 01:13:35;;;;;;;42.42;33.60;;;;;;;18.30;100.00;95982.88;10539345;28;20207;-76
2022/08/19 01:18:39;;;;;;;41.08;34.65;;;;;;;18.26;100.00;95973.78;10539751;28;20245;-76
2022/08/19 01:23:42;;;;;;;45.58;37.65;;;;;;;18.15;100.00;95977.97;10520852;28;20214;-76
2022/08/19 01:28:44;;;;;;;45.40;36.40;;;;;;;18.28;100.00;95972.50;10538890;28;20302;-76
2022/08/19 01:33:46;;;;;;;45.10;37.20;;;;;;;18.23;100.00;95975.00;10521314;28;20297;-76
2022/08/19 01:38:46;;;;;;;48.38;37.97;;;;;;;18.20;100.00;95977.31;10520764;28;20194;-76
2022/08/19 01:43:47;;;;;;;53.83;41.83;;;;;;;17.97;100.00;95973.50;10538680;28;20201;-77
2022/08/19 01:48:47;;;;;;;51.67;38.40;;;;;;;18.05;100.00;95980.34;10537935;28;20218;-77
2022/08/19 01:53:49;;;;;;;53.13;41.33;;;;;;;18.11;100.00;95956.38;10534347;28;20233;-77
2022/08/19 01:58:53;;;;;;;43.17;35.95;;;;;;;18.24;100.00;95942.19;10537835;28;20178;-77
2022/08/19 02:03:54;;;;;;;47.28;35.70;;;;;;;18.31;100.00;95958.00;10497823;28;20207;-77
2022/08/19 02:08:55;;;;;;;41.33;34.80;;;;;;;18.30;100.00;95970.44;10533464;28;20223;-77
2022/08/19 02:13:55;;;;;;;47.05;38.20;;;;;;;18.21;100.00;95969.13;10537018;28;20183;-77
2022/08/19 02:18:56;;;;;;;44.80;37.22;;;;;;;18.24;100.00;95975.81;10519334;28;20273;-77
2022/08/19 02:23:57;;;;;;;44.00;34.90;;;;;;;18.15;100.00;95976.13;10518443;28;20198;-77
2022/08/19 02:28:57;;;;;;;44.35;35.72;;;;;;;18.31;100.00;95963.28;10536882;28;20562;-77
2022/08/19 02:33:58;;;;;;;43.15;37.65;;;;;;;18.26;100.00;95971.13;10536726;28;20214;-77
2022/08/19 02:38:58;;;;;;;43.83;35.50;;;;;;;18.22;100.00;95965.44;10518088;28;20197;-77
2022/08/19 02:44:01;;;;;;;41.90;35.00;;;;;;;18.21;100.00;95971.78;10536614;28;20186;-77
2022/08/19 02:49:04;;;;;;;40.53;35.45;;;;;;;18.29;100.00;95973.31;10535406;28;20617;-77
2022/08/19 02:54:05;;;;;;;41.05;32.75;;;;;;;18.40;100.00;95983.16;10517811;28;20295;-76
2022/08/19 02:59:08;;;;;;;40.42;33.67;;;;;;;18.41;100.00;95979.47;10517001;28;20183;-76
2022/08/19 03:04:11;;;;;;;48.42;36.30;;;;;;;18.32;100.00;95975.53;10514038;28;20593;-76
2022/08/19 03:09:12;;;;;;;41.15;35.08;;;;;;;18.43;100.00;95979.25;10472229;28;20564;-76
2022/08/19 03:14:12;;;;;;;42.10;34.75;;;;;;;18.33;100.00;95983.25;10489476;28;20197;-76
2022/08/19 03:19:15;;;;;;;41.22;34.42;;;;;;;18.46;100.00;95989.41;10488580;28;20266;-76
2022/08/19 03:24:15;;;;;;;41.25;35.33;;;;;;;18.32;100.00;95989.59;10489405;28;20640;-76
2022/08/19 03:29:17;;;;;;;39.80;33.38;;;;;;;18.43;100.00;95981.91;10488638;28;20264;-76
2022/08/19 03:34:20;;;;;;;51.45;39.58;;;;;;;18.15;100.00;95994.69;10471421;28;20214;-76
2022/08/19 03:39:22;;;;;;;49.17;40.28;;;;;;;18.08;100.00;95996.59;10488208;28;20305;-76
2022/08/19 03:44:23;;;;;;;55.97;44.72;;;;;;;17.97;100.00;95986.75;10471152;28;20598;-76
2022/08/19 03:49:26;;;;;;;50.13;41.55;;;;;;;18.02;100.00;95996.69;10488480;28;20221;-76
2022/08/19 03:54:27;;;;;;;53.90;42.58;;;;;;;18.12;100.00;95992.47;10470281;28;20723;-76
2022/08/19 03:59:31;;;;;;;53.05;42.17;;;;;;;18.14;100.00;95987.75;10488180;28;20329;-76
2022/08/19 04:04:31;;;;;;;55.28;45.22;;;;;;;18.06;100.00;95997.88;10491368;28;20525;-75
2022/08/19 04:09:33;;;;;;;60.70;45.30;;;;;;;17.99;100.00;95987.31;10497256;28;20222;-76
2022/08/19 04:14:34;;;;;;;62.10;42.95;;;;;;;17.98;100.00;95985.72;10500243;28;20183;-76
2022/08/19 04:19:35;;;;;;;54.72;43.13;;;;;;;18.21;100.00;95987.69;10499827;28;20187;-75
2022/08/19 04:24:35;;;;;;;54.63;41.72;;;;;;;18.32;100.00;95999.38;10481937;28;20274;-75
2022/08/19 04:29:39;;;;;;;55.47;43.92;;;;;;;18.07;100.00;95984.41;10499462;28;20242;-76
2022/08/19 04:34:39;;;;;;;57.45;43.67;;;;;;;18.21;100.00;95989.50;10499043;28;20215;-75
2022/08/19 04:44:58;;;;;;;54.30;41.80;;;;;;;18.32;100.00;95996.75;10484182;28;20598;-75
2022/08/19 04:49:59;;;;;;;50.10;40.35;;;;;;;18.41;100.00;95992.75;10498204;28;20223;-75
2022/08/19 04:55:00;;;;;;;50.85;39.88;;;;;;;18.31;100.00;95995.13;10498674;28;20653;-75
2022/08/19 05:00:00;;;;;;;52.85;40.78;;;;;;;18.28;100.00;95979.66;10480444;28;20189;-75
2022/08/19 05:05:00;;;;;;;49.30;38.20;;;;;;;18.23;100.00;95993.56;10498124;28;20313;-75
2022/08/19 05:10:01;;;;;;;44.10;36.63;;;;;;;18.22;100.00;96007.06;10498134;28;20223;-75
2022/08/19 05:15:03;;;;;;;44.33;37.25;;;;;;;18.26;100.00;96024.16;10497501;28;20186;-75
2022/08/19 05:25:25;;;;;;;50.45;38.75;;;;;;;17.96;100.00;96038.94;10497374;28;20187;-75
2022/08/19 05:30:25;;;;;;;52.53;39.78;;;;;;;17.95;100.00;96042.63;10497380;28;20215;-75
2022/08/19 05:35:26;;;;;;;55.15;39.97;;;;;;;17.88;100.00;96055.09;10496663;28;20573;-75
2022/08/19 05:40:26;;;;;;;44.25;36.40;;;;;;;18.11;100.00;96073.03;10496941;28;20191;-75
2022/08/19 05:45:27;;;;;;;45.15;37.33;;;;;;;17.98;100.00;96079.28;10496761;28;20198;-75
2022/08/19 05:50:28;;;;;;;51.50;37.67;;;;;;;17.94;100.00;96082.59;10496231;28;20806;-75
2022/08/19 05:55:28;;;;;;;46.05;36.97;;;;;;;17.91;100.00;96098.94;10495569;28;20314;-75
2022/08/19 06:00:30;;;;;;;51.45;40.00;;;;;;;17.86;100.00;96120.75;10497113;28;20187;-75
2022/08/19 06:05:30;;;;;;;45.13;36.53;;;;;;;17.94;100.00;96131.09;10497953;28;20203;-74
2022/08/19 06:10:31;;;;;;;42.60;33.78;;;;;;;17.92;100.00;96141.09;10496128;28;20211;-75
2022/08/19 06:15:31;;;;;;;42.05;34.03;;;;;;;18.10;100.00;96145.66;10496086;28;20572;-75
2022/08/19 06:20:32;;;;;;;42.42;32.03;;;;;;;17.96;100.00;96150.25;10495545;28;20598;-75
2022/08/19 06:25:32;;;;;;;38.47;31.25;;;;;;;18.02;100.00;96167.09;10496664;28;20191;-75
2022/08/19 06:30:32;;;;;;;35.08;28.45;;;;;;;18.03;100.00;96167.94;10535448;28;20285;-74
2022/08/19 06:35:39;;;;;;;33.85;29.33;;;;;;;17.92;100.00;96166.81;10587995;28;20199;-73
2022/08/19 06:40:39;;;;;;;34.20;28.23;;;;;;;17.87;100.00;96180.69;10556346;28;20206;-73
2022/08/19 06:45:39;;;;;;;33.38;26.80;;;;;;;17.92;100.00;96185.34;10537072;28;20631;-73
2022/08/19 06:50:40;;;;;;;27.85;22.63;;;;;;;17.94;100.00;96184.09;10536915;28;20391;-74
2022/08/19 06:55:40;;;;;;;32.72;23.48;;;;;;;17.96;100.00;96184.72;10536447;28;20237;-74
2022/08/19 07:00:40;;;;;;;24.63;21.48;;;;;;;18.09;100.00;96178.47;10536561;28;20194;-73
2022/08/19 07:05:41;;;;;;;23.05;20.60;;;;;;;18.06;100.00;96168.31;10519312;28;20195;-73
2022/08/19 07:10:44;;;;;;;24.25;20.10;;;;;;;18.08;100.00;96181.34;10537448;28;20218;-73
2022/08/19 07:15:46;;;;;;;28.88;20.77;;;;;;;18.04;100.00;96180.97;10539993;28;20364;-73
2022/08/19 07:20:47;;;;;;;30.20;21.73;;;;;;;18.04;100.00;96183.63;10537748;28;20654;-73
2022/08/19 07:25:47;;;;;;;27.73;23.40;;;;;;;18.04;100.00;96183.63;10538144;28;20186;-73
2022/08/19 07:30:49;;;;;;;32.55;25.77;;;;;;;18.05;100.00;96174.63;10536332;28;20214;-73
2022/08/19 07:35:50;;;;;;;30.70;24.33;;;;;;;18.26;100.00;96176.06;10535742;28;20593;-73
2022/08/19 07:40:51;;;;;;;26.63;22.40;;;;;;;18.40;100.00;96174.09;10533954;28;20198;-73
2022/08/19 07:45:55;;;;;;;26.77;22.27;;;;;;;18.59;100.00;96177.59;10534388;28;20194;-73
2022/08/19 07:51:01;;;;;;;28.60;23.48;;;;;;;18.63;100.00;96177.97;10533055;28;20214;-72
2022/08/19 07:56:03;;;;;;;27.40;22.40;;;;;;;18.83;100.00;96191.81;10542733;28;20226;-73
2022/08/19 08:01:06;;;;;;;27.77;21.60;;;;;;;18.65;100.00;96192.63;10573152;28;20192;-73
2022/08/19 08:11:25;;;;;;;33.88;24.38;;;;;;;18.64;100.00;96204.28;10531873;28;20210;-76
2022/08/19 08:16:29;;;;;;;34.90;25.95;;;;;;;18.60;100.00;96200.44;10534075;28;20190;-75
2022/08/19 08:21:30;;;;;;;31.50;23.75;;;;;;;18.63;100.00;96207.16;10536727;28;20646;-75
2022/08/19 08:26:30;;;;;;;30.75;23.63;;;;;;;18.73;100.00;96210.13;10533654;28;20217;-75
2022/08/19 08:31:30;;;;;;;30.27;23.02;;;;;;;18.95;100.00;96213.16;10532731;28;20233;-76
2022/08/19 08:36:33;;;;;;;28.65;22.88;;;;;;;19.18;100.00;96198.38;10529866;28;20301;-75
2022/08/19 08:41:41;;;;;;;27.77;22.48;;;;;;;19.34;100.00;96192.47;10529655;28;20216;-75
2022/08/19 08:46:46;;;;;;;28.55;21.75;;;;;;;19.33;100.00;96196.16;10511049;28;20190;-75
2022/08/19 08:52:11;;;;;;;28.52;21.58;;;;;;;19.50;100.00;96204.28;10511359;28;20218;-75
2022/08/19 08:57:24;;;;;;;16.48;13.93;;;;;;;19.73;100.00;96213.38;10484797;28;20241;-76
2022/08/19 09:02:24;;;;;;;19.35;14.82;;;;;;;19.20;100.00;96215.72;10474373;28;20196;-76
2022/08/19 09:07:43;;;;;;;22.23;16.58;;;;;;;19.48;100.00;96222.31;10489749;28;20561;-76
2022/08/19 09:13:18;;;;;;;20.95;18.10;;;;;;;19.51;100.00;96221.88;10495112;28;20223;-76
2022/08/19 09:18:18;;;;;;;23.08;18.50;;;;;;;19.92;100.00;96206.16;10494764;28;20662;-77
2022/08/19 09:23:21;;;;;;;21.92;15.70;;;;;;;20.25;100.00;96195.00;10496305;28;20187;-78
2022/08/19 09:28:21;;;;;;;23.10;19.88;;;;;;;19.98;100.00;96189.31;10495566;28;20211;-78
2022/08/19 09:33:22;;;;;;;21.48;18.25;;;;;;;19.70;100.00;96188.06;10492929;28;20198;-77
2022/08/19 09:38:22;;;;;;;21.58;17.90;;;;;;;19.83;100.00;96192.41;10475943;28;20286;-78
2022/08/19 09:43:22;;;;;;;19.70;15.68;;;;;;;20.17;100.00;96198.00;10493877;28;20290;-77
2022/08/19 09:48:23;;;;;;;19.23;15.25;;;;;;;20.07;100.00;96197.75;10493940;28;20227;-78
2022/08/19 09:59:41;;;;;;;14.02;12.55;;;;;;;20.06;100.00;96183.66;10453312;28;20207;-78
2022/08/19 10:10:02;;;;;;;12.35;10.55;;;;;;;20.71;100.00;96202.44;10496990;28;20713;-78
2022/08/19 10:15:04;;;;;;;12.52;11.23;;;;;;;20.63;100.00;96212.34;10496458;28;20202;-77
2022/08/19 10:20:05;;;;;;;13.63;12.23;;;;;;;20.71;100.00;96213.09;10556017;28;20588;-75
2022/08/19 10:25:06;;;;;;;15.50;13.90;;;;;;;20.29;100.00;96217.44;10536240;28;20236;-75
2022/08/19 10:30:07;;;;;;;16.33;14.57;;;;;;;20.36;100.00;96205.88;10534443;28;20250;-76
2022/08/19 10:35:08;;;;;;;19.00;16.95;;;;;;;19.82;100.00;96225.34;10516669;28;20206;-75
2022/08/19 10:40:10;;;;;;;24.25;21.23;;;;;;;19.00;100.00;96239.84;10534241;28;20186;-75
2022/08/19 10:45:10;;;;;;;20.45;18.27;;;;;;;19.30;100.00;96248.91;10516788;28;20194;-75
2022/08/19 11:01:20;;;;;;;16.63;13.85;;;;;;;20.15;100.00;96250.59;10534883;28;20234;-75
2022/08/19 11:06:20;;;;;;;14.57;12.02;;;;;;;20.66;100.00;96243.84;10542426;28;20348;-74
2022/08/19 11:11:21;;;;;;;10.43;9.32;;;;;;;21.72;100.00;96234.00;10534388;28;20226;-74
2022/08/19 11:16:25;;;;;;;8.95;8.15;;;;;;;21.75;100.00;96233.53;10524799;28;20200;-75
2022/08/19 11:21:29;;;;;;;8.80;8.00;;;;;;;21.85;100.00;96233.72;10497369;28;20226;-75
2022/08/19 11:26:30;;;;;;;8.50;7.70;;;;;;;21.69;100.00;96235.28;10532405;28;20500;-75
2022/08/19 11:31:33;;;;;;;9.10;8.30;;;;;;;22.06;100.00;96232.19;10514282;28;20222;-75
2022/08/19 11:36:37;;;;;;;7.60;6.90;;;;;;;22.00;100.00;96225.16;10533110;28;20620;-75
2022/08/19 11:41:38;;;;;;;9.23;8.32;;;;;;;22.17;100.00;96225.16;10531498;28;20209;-75
2022/08/19 11:46:38;;;;;;;10.60;8.70;;;;;;;22.44;100.00;96229.88;10533660;28;20604;-75
2022/08/19 11:51:39;;;;;;;6.72;6.10;;;;;;;22.73;100.00;96225.22;10532718;28;20223;-75
2022/08/19 11:56:40;;;;;;;6.60;6.00;;;;;;;22.40;100.00;96228.75;10513165;28;20228;-75
2022/08/19 12:01:42;;;;;;;6.88;6.13;;;;;;;22.70;100.00;96231.06;10512840;28;20649;-75
2022/08/19 12:06:42;;;;;;;5.97;5.45;;;;;;;23.10;100.00;96221.19;10530686;28;20194;-75
2022/08/19 12:11:43;;;;;;;6.07;5.57;;;;;;;23.24;100.00;96218.97;10514360;28;20241;-75
2022/08/19 12:16:45;;;;;;;6.35;5.75;;;;;;;22.20;100.00;96239.88;10531577;28;20194;-75
2022/08/19 12:21:45;;;;;;;5.10;4.53;;;;;;;21.43;100.00;96241.97;10509237;28;20557;-75
2022/08/19 12:26:46;;;;;;;5.40;4.90;;;;;;;21.01;100.00;96255.50;10531349;28;20197;-75
2022/08/19 12:31:47;;;;;;;6.13;5.63;;;;;;;20.83;100.00;96275.91;10515368;28;20243;-75
2022/08/19 12:36:49;;;;;;;6.88;6.18;;;;;;;20.70;100.00;96268.16;10518725;28;20236;-75
2022/08/19 12:41:49;;;;;;;7.78;7.07;;;;;;;20.74;100.00;96266.66;10536416;28;20218;-74
2022/08/19 12:46:49;;;;;;;8.88;8.07;;;;;;;20.74;100.00;96265.84;10535785;28;20281;-75
2022/08/19 12:51:50;;;;;;;8.75;7.95;;;;;;;20.46;100.00;96277.97;10519086;28;20222;-76
2022/08/19 12:56:50;;;;;;;10.05;9.05;;;;;;;20.27;100.00;96277.22;10536457;28;20231;-75
2022/08/19 13:01:51;;;;;;;10.50;9.40;;;;;;;20.73;100.00;96269.53;10518119;28;20273;-75
2022/08/19 13:06:51;;;;;;;11.00;9.55;;;;;;;21.05;100.00;96256.66;10535594;28;20187;-76
2022/08/19 13:11:51;;;;;;;10.70;9.60;;;;;;;21.13;100.00;96258.97;10500282;28;20214;-75
2022/08/19 13:16:52;;;;;;;14.10;12.52;;;;;;;21.02;100.00;96263.25;10535120;28;20214;-75
2022/08/19 13:21:55;;;;;;;15.90;14.30;;;;;;;20.46;100.00;96268.13;10534518;28;20190;-75
2022/08/19 13:26:55;;;;;;;19.52;17.42;;;;;;;19.99;100.00;96270.69;10537053;28;20201;-75
2022/08/19 13:37:15;;;;;;;24.60;21.17;;;;;;;20.21;100.00;96270.16;10531882;28;20947;-75
2022/08/19 13:42:16;;;;;;;24.70;21.92;;;;;;;20.24;100.00;96270.50;10531505;28;20198;-75
2022/08/19 13:47:17;;;;;;;24.45;21.67;;;;;;;20.35;100.00;96268.91;10536338;28;20205;-75
2022/08/19 13:52:18;;;;;;;25.50;22.80;;;;;;;20.38;100.00;96273.75;10535332;28;20562;-75
2022/08/19 13:57:21;;;;;;;33.28;28.98;;;;;;;20.00;100.00;96292.75;10533084;28;20234;-77
2022/08/19 14:02:21;;;;;;;33.47;27.80;;;;;;;19.79;100.00;96281.63;10530690;28;20339;-77
2022/08/19 14:07:23;;;;;;;37.30;30.60;;;;;;;19.91;100.00;96279.81;10545315;28;20201;-77
2022/08/19 14:12:23;;;;;;;41.58;33.45;;;;;;;19.78;100.00;96274.66;10533390;28;20245;-76
2022/08/19 14:17:24;;;;;;;46.85;35.83;;;;;;;19.76;100.00;96271.41;10516644;28;20273;-76
2022/08/19 14:22:25;;;;;;;52.92;39.30;;;;;;;19.60;100.00;96271.00;10533393;28;20598;-76
2022/08/19 14:27:25;;;;;;;52.00;37.00;;;;;;;20.06;100.00;96289.19;10516192;28;20586;-76
2022/08/19 14:32:26;;;;;;;48.47;37.30;;;;;;;19.93;100.00;96283.03;10531149;28;20587;-75
2022/08/19 14:37:27;;;;;;;51.83;37.35;;;;;;;19.89;100.00;96289.03;10533552;28;20210;-75
2022/08/19 14:42:27;;;;;;;46.97;33.80;;;;;;;20.06;100.00;96286.53;10533611;28;20198;-74
2022/08/19 14:47:27;;;;;;;44.33;33.42;;;;;;;19.96;100.00;96287.91;10514726;28;20631;-74
2022/08/19 14:52:28;;;;;;;42.00;30.40;;;;;;;20.02;100.00;96280.06;10531482;28;20242;-74
2022/08/19 14:57:28;;;;;;;39.67;29.35;;;;;;;20.11;100.00;96281.38;10531415;28;20226;-74
2022/08/19 15:02:28;;;;;;;39.15;31.35;;;;;;;19.92;100.00;96284.09;10530722;28;20189;-75
2022/08/19 15:07:29;;;;;;;43.58;33.90;;;;;;;20.00;100.00;96285.63;10514807;28;20198;-74
2022/08/19 15:12:30;;;;;;;43.45;33.60;;;;;;;19.82;100.00;96289.13;10531537;28;20218;-75
2022/08/19 15:17:30;;;;;;;43.53;32.47;;;;;;;19.92;100.00;96297.38;10532633;28;20281;-75
2022/08/19 15:22:31;;;;;;;44.83;33.53;;;;;;;19.70;100.00;96304.19;10531971;28;20248;-75
2022/08/19 15:27:32;;;;;;;43.38;33.30;;;;;;;19.79;100.00;96286.94;10533366;28;20622;-74
2022/08/19 15:32:32;;;;;;;44.80;31.63;;;;;;;19.77;100.00;96275.72;10533423;28;20229;-74
2022/08/19 15:37:33;;;;;;;49.30;34.50;;;;;;;19.72;100.00;96272.88;10530914;28;20589;-75
2022/08/19 15:42:35;;;;;;;42.22;31.05;;;;;;;20.15;100.00;96247.94;10531290;28;20228;-75
2022/08/19 15:47:36;;;;;;;41.42;31.35;;;;;;;20.14;100.00;96255.13;10530560;28;20580;-75
2022/08/19 15:52:47;;;;;;;35.60;28.52;;;;;;;20.33;100.00;96243.59;10527864;28;20206;-75
2022/08/19 16:08:25;;;;;;;45.30;33.75;;;;;;;20.05;100.00;96266.31;10506121;28;20209;-74
2022/08/19 16:13:26;;;;;;;48.35;37.00;;;;;;;19.98;100.00;96262.94;10540985;28;20614;-75
2022/08/19 16:18:26;;;;;;;45.55;35.88;;;;;;;19.82;100.00;96259.09;10532907;28;20593;-75
2022/08/19 16:23:27;;;;;;;47.03;33.75;;;;;;;19.76;100.00;96250.94;10521695;28;20217;-74
2022/08/19 16:28:27;;;;;;;39.75;31.88;;;;;;;19.77;100.00;96230.53;10538161;28;20288;-75
2022/08/19 16:33:27;;;;;;;39.47;31.92;;;;;;;19.70;100.00;96229.78;10538813;28;20371;-74
2022/08/19 16:38:28;;;;;;;36.15;27.98;;;;;;;19.84;100.00;96227.78;10535909;28;20202;-74
2022/08/19 16:43:30;;;;;;;30.98;25.42;;;;;;;19.91;100.00;96241.78;10534506;28;20285;-75
2022/08/19 16:48:31;;;;;;;30.30;25.77;;;;;;;19.98;100.00;96229.19;10536781;28;20206;-76
2022/08/19 16:53:32;;;;;;;54.08;37.05;;;;;;;19.69;100.00;96225.50;10536353;28;20234;-75
2022/08/19 16:58:33;;;;;;;49.15;36.05;;;;;;;19.67;100.00;96235.56;10536336;28;20558;-75
2022/08/19 17:03:34;;;;;;;61.78;40.47;;;;;;;19.32;100.00;96252.16;10536213;28;20586;-75
2022/08/19 17:08:34;;;;;;;57.75;39.92;;;;;;;18.86;100.00;96271.03;10501065;28;20202;-76
2022/08/19 17:13:35;;;;;;;66.03;41.78;;;;;;;18.71;100.00;96255.44;10534341;28;20191;-75
2022/08/19 17:18:36;;;;;;;59.33;39.45;;;;;;;18.63;100.00;96276.13;10534796;28;20218;-75
2022/08/19 17:23:36;;;;;;;61.63;39.83;;;;;;;18.69;100.00;96276.06;10517169;28;20244;-75
2022/08/19 17:28:36;;;;;;;67.63;40.80;;;;;;;18.52;100.00;96269.69;10534324;28;20298;-75
2022/08/19 17:33:37;;;;;;;60.28;39.35;;;;;;;18.35;100.00;96270.25;10536299;28;20182;-75
2022/08/19 17:38:38;;;;;;;46.88;33.10;;;;;;;18.46;100.00;96276.66;10531133;28;20197;-76
2022/08/19 17:43:39;;;;;;;48.40;33.60;;;;;;;18.39;100.00;96294.47;10531743;28;20602;-75
2022/08/19 17:48:39;;;;;;;46.22;31.70;;;;;;;18.55;100.00;96295.78;10531618;28;20218;-75
2022/08/19 17:53:40;;;;;;;37.75;28.38;;;;;;;18.66;100.00;96283.66;10535332;28;20230;-75
2022/08/19 17:59:10;;;;;;;39.88;29.90;;;;;;;18.73;100.00;96295.03;10534053;28;20210;-76
2022/08/19 18:04:10;;;;;;;36.28;29.17;;;;;;;18.59;100.00;96314.72;10514368;28;20210;-75
2022/08/19 18:09:11;;;;;;;31.83;25.50;;;;;;;18.64;100.00;96326.31;10535699;28;20214;-77
2022/08/19 18:14:12;;;;;;;44.55;32.78;;;;;;;18.49;100.00;96358.47;10535350;28;20267;-75
2022/08/19 18:19:12;;;;;;;45.50;34.25;;;;;;;18.13;100.00;96372.38;10535582;28;20186;-76
2022/08/19 18:24:12;;;;;;;44.17;33.40;;;;;;;18.26;100.00;96374.94;10535940;28;20190;-76
2022/08/19 18:29:13;;;;;;;47.30;32.33;;;;;;;18.36;100.00;96363.84;10517853;28;20214;-76
2022/08/19 18:34:14;;;;;;;36.13;25.85;;;;;;;18.44;100.00;96365.47;10537352;28;20643;-76
2022/08/19 18:49:56;;;;;;;54.08;36.45;;;;;;;18.52;100.00;96363.34;10530675;28;20203;-74
2022/08/19 18:54:58;;;;;;;37.10;28.27;;;;;;;18.52;100.00;96360.69;10533884;28;20230;-74
2022/08/19 18:59:58;;;;;;;36.10;28.75;;;;;;;18.52;100.00;96366.00;10533944;28;20345;-76
2022/08/19 19:04:59;;;;;;;38.88;30.60;;;;;;;18.31;100.00;96372.47;10535731;28;20277;-75
2022/08/19 19:09:59;;;;;;;38.05;30.02;;;;;;;18.50;100.00;96356.66;10536032;28;20685;-77
2022/08/19 19:15:04;;;;;;;40.40;30.63;;;;;;;18.34;100.00;96360.63;10535567;28;20595;-75
2022/08/19 19:20:05;;;;;;;49.22;32.22;;;;;;;18.38;100.00;96353.88;10535431;28;20311;-75
2022/08/19 19:25:07;;;;;;;52.20;36.13;;;;;;;18.28;100.00;96361.47;10535660;28;20315;-76
2022/08/19 19:30:07;;;;;;;47.92;34.38;;;;;;;18.30;100.00;96359.41;10534893;28;20217;-76
2022/08/19 19:35:11;;;;;;;51.67;37.50;;;;;;;18.41;100.00;96365.88;10534579;28;20207;-75
2022/08/19 19:40:11;;;;;;;52.45;36.58;;;;;;;18.39;100.00;96368.72;10534120;28;20194;-76
2022/08/19 19:45:14;;;;;;;65.63;42.17;;;;;;;18.38;100.00;96345.91;10534763;28;20194;-75
2022/08/19 19:50:15;;;;;;;66.63;44.80;;;;;;;18.39;100.00;96344.88;10515612;28;20218;-75
2022/08/19 19:55:16;;;;;;;62.95;44.00;;;;;;;18.36;100.00;96354.09;10533946;28;20571;-76
2022/08/19 20:00:17;;;;;;;66.55;45.38;;;;;;;18.39;100.00;96333.44;10534110;28;20613;-76
2022/08/19 20:05:21;;;;;;;64.03;45.30;;;;;;;18.37;100.00;96338.97;10533748;28;20201;-76
2022/08/19 20:10:22;;;;;;;60.15;42.88;;;;;;;18.35;100.00;96363.06;10533856;28;20699;-76
2022/08/19 20:15:22;;;;;;;66.70;45.10;;;;;;;18.32;100.00;96357.38;10533945;28;20190;-76
2022/08/19 20:20:26;;;;;;;72.93;46.33;;;;;;;18.09;100.00;96373.84;10515600;28;20929;-76
2022/08/19 20:25:26;;;;;;;66.60;45.03;;;;;;;18.00;100.00;96384.66;10533843;28;20711;-75
2022/08/19 20:30:27;;;;;;;65.78;43.92;;;;;;;17.95;100.00;96383.69;10532273;28;20274;-74
2022/08/19 20:35:28;;;;;;;70.90;42.90;;;;;;;18.03;100.00;96380.78;10514702;28;20210;-75
2022/08/19 20:40:28;;;;;;;58.80;40.00;;;;;;;17.91;100.00;96377.19;10533700;28;20186;-75
2022/08/19 20:45:29;;;;;;;64.72;42.13;;;;;;;17.92;100.00;96378.81;10533734;28;20643;-76
2022/08/19 20:50:34;;;;;;;58.35;40.35;;;;;;;18.03;100.00;96364.88;10535679;28;20222;-75
2022/08/19 20:55:34;;;;;;;61.15;41.83;;;;;;;17.97;100.00;96366.53;10541608;28;20223;-74
2022/08/19 21:00:34;;;;;;;59.38;40.47;;;;;;;18.01;100.00;96388.16;10542356;28;20190;-76
2022/08/19 21:05:35;;;;;;;53.75;39.20;;;;;;;17.95;100.00;96381.84;10555182;28;20198;-76
2022/08/19 21:10:35;;;;;;;53.58;38.97;;;;;;;17.92;100.00;96376.16;10560077;28;20237;-74
2022/08/19 21:15:39;;;;;;;51.13;36.03;;;;;;;17.84;100.00;96371.88;10540789;28;20197;-76
2022/08/19 21:20:40;;;;;;;58.40;37.72;;;;;;;17.89;100.00;96379.25;10539717;28;20299;-75
2022/08/19 21:25:41;;;;;;;53.38;36.45;;;;;;;17.91;100.00;96385.13;10504613;28;20198;-74
2022/08/19 21:30:42;;;;;;;44.85;30.63;;;;;;;17.92;100.00;96378.81;10538480;28;20279;-74
2022/08/19 21:35:42;;;;;;;48.67;33.95;;;;;;;17.95;100.00;96378.41;10538834;28;20211;-74
2022/08/19 21:40:42;;;;;;;49.83;33.63;;;;;;;17.99;100.00;96385.72;10538834;28;20654;-74
2022/08/19 21:45:44;;;;;;;49.30;33.15;;;;;;;17.96;100.00;96380.00;10538719;28;20839;-76
2022/08/19 21:50:44;;;;;;;53.67;34.97;;;;;;;17.90;100.00;96373.72;10538368;28;20225;-75
2022/08/19 21:55:45;;;;;;;44.75;31.92;;;;;;;17.97;100.00;96363.09;10537879;28;20597;-76
2022/08/19 22:00:46;;;;;;;43.42;30.35;;;;;;;18.04;100.00;96363.03;10537540;28;20199;-75
2022/08/19 22:05:46;;;;;;;49.03;34.15;;;;;;;17.98;100.00;96357.56;10538104;28;20195;-75
2022/08/19 22:10:48;;;;;;;44.60;30.92;;;;;;;17.94;100.00;96371.47;10537564;28;20622;-74
2022/08/19 22:15:50;;;;;;;47.67;33.78;;;;;;;17.93;100.00;96380.41;10537184;28;20274;-74
2022/08/19 22:20:50;;;;;;;44.22;31.52;;;;;;;17.90;100.00;96362.28;10536884;28;20194;-76
2022/08/19 22:25:51;;;;;;;50.83;34.50;;;;;;;17.93;100.00;96357.41;10537270;28;20213;-74
2022/08/19 22:30:51;;;;;;;49.55;36.28;;;;;;;17.98;100.00;96368.19;10518160;28;20210;-75
2022/08/19 22:35:52;;;;;;;55.58;35.63;;;;;;;18.08;100.00;96364.25;10536320;28;20242;-75
2022/08/19 22:40:52;;;;;;;47.40;33.80;;;;;;;17.96;100.00;96362.28;10536343;28;20183;-75
2022/08/19 22:45:54;;;;;;;51.28;35.25;;;;;;;17.94;100.00;96374.91;10536088;28;20190;-74
2022/08/19 22:56:17;;;;;;;57.40;36.58;;;;;;;17.83;100.00;96376.34;10536377;28;20222;-75
2022/08/19 23:01:20;;;;;;;56.15;36.95;;;;;;;17.95;100.00;96373.09;10536230;28;20183;-75
2022/08/19 23:06:21;;;;;;;61.05;36.13;;;;;;;17.88;100.00;96372.28;10536834;28;20194;-75
2022/08/19 23:11:21;;;;;;;57.33;36.05;;;;;;;17.95;100.00;96375.75;10536283;28;20279;-76
2022/08/19 23:16:22;;;;;;;53.28;36.03;;;;;;;17.79;100.00;96377.00;10535532;28;20255;-75
2022/08/19 23:21:25;;;;;;;63.85;39.05;;;;;;;17.65;100.00;96368.28;10536023;28;20705;-75
2022/08/19 23:26:25;;;;;;;58.63;38.03;;;;;;;17.54;100.00;96369.75;10535858;28;20198;-76
2022/08/19 23:31:25;;;;;;;70.03;40.55;;;;;;;17.42;100.00;96369.56;10535952;28;20577;-76
2022/08/19 23:36:26;;;;;;;62.17;39.45;;;;;;;17.38;100.00;96373.69;10535278;28;20208;-73
2022/08/19 23:41:26;;;;;;;75.20;40.90;;;;;;;17.29;100.00;96374.94;10535423;28;20198;-75
2022/08/19 23:46:27;;;;;;;76.38;43.08;;;;;;;17.24;100.00;96385.31;10535487;28;20776;-74